Warning: Javascript must be enabled to use all the features on this page!


Page Loading - Please Wait...

* We've detected you're using a mobile device. Find our Next Generation Station Page here.
Click to hideNews Bulletins

Peak Streamflow for New Jersey

Click to hide state-specific text

ALL DATA ARE AT LOCAL TIME


USGS 01392170 Third River at Bloomfield NJ

Essex County, New Jersey
Hydrologic Unit Code 02030103
Latitude  40°48'00", Longitude  74°11'16" NAD83
Drainage area 7.71  square miles
Gage datum 100 feet above NAVD88
Output formats
Table
Graph
Tab-separated file
peakfq (watstore) format
Reselect output format
Water
Year
Date Gage
Height
(feet)
Stream-
flow
(cfs)
1989 1989-07-05 6.08 941
1990 1990-05-16 6.18 975
1991 1991-03-03 6.52 1,100
1992 1992-06-05 6.58 1,120
1993 1993-08-16 5.75 831
1994 1993-11-28 5.38 716
1995 1995-07-17 4.99 604
1996 1995-10-28 5.35 708
1997 1996-10-19 7.34 1,410
1998 1998-06-14 4.47 467
1999 1999-09-16 9.97 2,670
2000 2000-08-11 4.63 508
2001 2001-04-09 4.88 574
2002 2002-07-19 6.20 982
2003 2003-06-01 4.65 513
2004 2004-09-08 5.26 681
2005 2005-03-28 6.48 1,080
2006 2005-10-12 5.98 907
2007 2007-04-15 7.79 1,600
2008 2008-09-06 7.36 1,420
2009 2009-08-02 4.87 571
2010 2010-03-30 5.32 699
2011 2011-08-28 8.71 2,020
2012 2011-12-08 4.90 579
2013 2013-07-01 5.45 738
2014 2014-04-30 6.09 828
2015 2015-04-20 6.33 916
2016 2016-02-16 5.72 739
2017 2016-11-15 5.47 743
2018 2018-08-11 7.16 1,350
2019 2019-07-11 5.28 684